Time;durP1;ratioP1;P1;durP2;ratioP2;P2;SDS_P1;SDS_P2;PMS_P1;PMS_P2;Temp;Humidity;BMP_temperature;BMP_pressure;BME280_temperature;BME280_humidity;BME280_pressure;Samples;Min_cycle;Max_cycle;Signal;HPM_P1;HPM_P2
2023/06/15 00:02:50;;;;;;;1.98;1.45;;;22.60;55.20;;;;;;8428434;28;20028;-55
2023/06/15 00:06:51;;;;;;;2.33;1.60;;;22.60;55.20;;;;;;8427873;28;20079;-56
2023/06/15 00:10:52;;;;;;;3.17;1.50;;;22.60;55.00;;;;;;8428070;28;20024;-54
2023/06/15 00:14:52;;;;;;;1.88;1.50;;;22.60;55.10;;;;;;8427346;28;20031;-56
2023/06/15 00:18:54;;;;;;;1.60;1.48;;;22.70;54.90;;;;;;8427034;28;20039;-54
2023/06/15 00:22:55;;;;;;;5.13;1.60;;;22.60;54.80;;;;;;8427708;28;20401;-56
2023/06/15 00:26:56;;;;;;;2.58;1.38;;;22.70;54.90;;;;;;8426826;28;20059;-55
2023/06/15 00:30:57;;;;;;;1.50;1.40;;;22.70;54.90;;;;;;8426213;28;20035;-54
2023/06/15 00:34:57;;;;;;;2.50;1.40;;;22.70;54.90;;;;;;8429263;28;20321;-55
2023/06/15 00:38:58;;;;;;;3.65;1.70;;;22.60;54.80;;;;;;8425906;28;20102;-53
2023/06/15 00:42:59;;;;;;;5.00;1.83;;;22.60;54.90;;;;;;8426452;28;20036;-54
2023/06/15 00:47:00;;;;;;;2.13;1.92;;;22.70;54.70;;;;;;8426733;28;20039;-55
2023/06/15 00:51:01;;;;;;;9.15;2.03;;;22.80;54.50;;;;;;8426169;28;20215;-56
2023/06/15 00:55:03;;;;;;;4.13;2.47;;;22.90;54.40;;;;;;8426810;28;20177;-55
2023/06/15 00:59:05;;;;;;;2.92;2.35;;;23.00;54.50;;;;;;8426226;28;20407;-55
2023/06/15 01:03:06;;;;;;;3.40;2.40;;;23.00;54.30;;;;;;8427205;28;20111;-55
2023/06/15 01:07:10;;;;;;;3.40;2.53;;;23.00;54.30;;;;;;8424605;28;20104;-55
2023/06/15 01:11:12;;;;;;;9.68;2.50;;;23.00;54.60;;;;;;8431165;28;20016;-53
2023/06/15 01:15:13;;;;;;;2.67;2.30;;;22.90;55.00;;;;;;8432585;28;20028;-56
2023/06/15 01:20:08;;;;;;;4.93;2.42;;;22.90;55.10;;;;;;8432977;28;20059;-57
2023/06/15 01:24:35;;;;;;;2.47;2.15;;;22.90;55.00;;;;;;8431142;28;20055;-55
2023/06/15 01:28:45;;;;;;;5.55;2.08;;;22.90;55.00;;;;;;8434823;28;20020;-55
2023/06/15 01:32:45;;;;;;;2.75;2.10;;;22.90;55.00;;;;;;8432895;28;20036;-55
2023/06/15 01:36:46;;;;;;;3.58;2.22;;;22.80;55.00;;;;;;8432792;28;20485;-55
2023/06/15 01:40:49;;;;;;;2.95;2.38;;;22.80;55.10;;;;;;8434070;28;20039;-55
2023/06/15 01:44:52;;;;;;;2.35;2.00;;;22.90;55.10;;;;;;8432264;28;20830;-56
2023/06/15 01:48:53;;;;;;;2.58;2.30;;;22.80;55.30;;;;;;8431711;28;20712;-56
2023/06/15 01:52:54;;;;;;;2.13;1.73;;;22.80;55.20;;;;;;8432018;28;20477;-56
2023/06/15 01:56:55;;;;;;;4.50;1.80;;;22.80;54.90;;;;;;8432169;28;20039;-55
2023/06/15 02:00:55;;;;;;;1.67;1.58;;;22.80;55.20;;;;;;8432259;28;20150;-54
2023/06/15 02:04:56;;;;;;;2.25;1.80;;;22.80;55.20;;;;;;8432834;28;20036;-57
2023/06/15 02:08:56;;;;;;;8.40;1.65;;;22.80;55.30;;;;;;8432358;28;20080;-58
2023/06/15 02:12:57;;;;;;;5.97;1.85;;;22.80;55.30;;;;;;8431579;28;20032;-57
2023/06/15 02:16:59;;;;;;;9.45;1.85;;;22.80;55.20;;;;;;8431949;28;20096;-55
2023/06/15 02:20:59;;;;;;;4.22;2.10;;;22.80;55.30;;;;;;8429041;28;20081;-55
2023/06/15 02:25:00;;;;;;;4.82;1.60;;;22.70;55.10;;;;;;8415339;28;20035;-58
2023/06/15 02:29:01;;;;;;;2.47;1.83;;;22.80;55.30;;;;;;8432042;28;20051;-57
2023/06/15 02:33:02;;;;;;;2.85;1.58;;;22.80;55.40;;;;;;8430862;28;20032;-57
2023/06/15 02:37:03;;;;;;;3.42;1.60;;;22.80;55.20;;;;;;8431298;28;20036;-57
2023/06/15 02:41:04;;;;;;;2.47;1.45;;;22.70;55.10;;;;;;8430926;28;20024;-58
2023/06/15 02:45:09;;;;;;;3.58;2.00;;;22.80;54.90;;;;;;8429248;28;20050;-57
2023/06/15 02:49:10;;;;;;;2.67;1.75;;;22.80;55.20;;;;;;8431734;28;20495;-57
2023/06/15 02:53:12;;;;;;;4.05;1.50;;;22.80;55.30;;;;;;8412841;28;20411;-54
2023/06/15 02:57:12;;;;;;;2.58;1.75;;;22.80;55.10;;;;;;8430432;28;20423;-55
2023/06/15 03:01:16;;;;;;;2.33;1.85;;;22.80;55.20;;;;;;8430757;28;20033;-56
2023/06/15 03:05:18;;;;;;;2.10;1.60;;;22.70;55.30;;;;;;8431447;28;20027;-57
2023/06/15 03:09:20;;;;;;;2.65;1.75;;;22.80;55.30;;;;;;8429057;28;20154;-56
2023/06/15 03:13:21;;;;;;;2.28;1.95;;;22.70;55.10;;;;;;8429650;28;20035;-58
2023/06/15 03:17:22;;;;;;;3.17;1.52;;;22.80;55.20;;;;;;8428173;28;20040;-55
2023/06/15 03:21:22;;;;;;;2.67;1.60;;;22.80;54.90;;;;;;8429186;28;20039;-54
2023/06/15 03:25:23;;;;;;;2.47;1.70;;;22.80;55.10;;;;;;8427877;28;20362;-55
2023/06/15 03:29:26;;;;;;;8.02;2.08;;;22.70;55.20;;;;;;8409549;28;20493;-57
2023/06/15 03:33:29;;;;;;;1.70;1.48;;;22.70;55.20;;;;;;8427403;28;20028;-57
2023/06/15 03:37:29;;;;;;;1.98;1.52;;;22.70;55.20;;;;;;8429589;28;20039;-55
2023/06/15 03:41:30;;;;;;;2.55;1.63;;;22.80;55.30;;;;;;8428494;28;20078;-53
2023/06/15 03:45:31;;;;;;;3.65;1.65;;;22.70;55.30;;;;;;8428768;28;20896;-59
2023/06/15 03:49:31;;;;;;;2.78;1.80;;;22.80;55.20;;;;;;8428104;28;20043;-55
2023/06/15 03:53:32;;;;;;;2.05;1.60;;;22.70;55.30;;;;;;8430395;28;20042;-55
2023/06/15 03:57:33;;;;;;;2.53;1.65;;;22.70;55.10;;;;;;8427683;28;20032;-58
2023/06/15 04:01:33;;;;;;;4.75;1.52;;;22.70;55.30;;;;;;8429446;28;20039;-55
2023/06/15 04:05:34;;;;;;;1.83;1.60;;;22.70;55.50;;;;;;8427593;28;20132;-54
2023/06/15 04:09:35;;;;;;;2.25;1.60;;;22.70;55.10;;;;;;8428017;28;20031;-57
2023/06/15 04:13:36;;;;;;;1.48;1.38;;;22.70;55.30;;;;;;8427167;28;20038;-55
2023/06/15 04:17:37;;;;;;;3.50;1.70;;;22.70;55.30;;;;;;8427244;28;20035;-56
2023/06/15 04:21:38;;;;;;;3.08;1.63;;;22.70;55.10;;;;;;8426462;28;20039;-56
2023/06/15 04:25:40;;;;;;;2.72;1.55;;;22.70;55.30;;;;;;8428113;28;20534;-56
2023/06/15 04:29:45;;;;;;;2.30;1.70;;;22.70;55.50;;;;;;8408798;28;20032;-55
2023/06/15 04:33:46;;;;;;;2.30;1.50;;;22.70;55.60;;;;;;8428463;28;20110;-61
2023/06/15 04:37:46;;;;;;;;;;;22.80;55.50;;;;;;8428654;28;20046;-61
2023/06/15 04:41:47;;;;;;;1.70;1.50;;;22.70;55.10;;;;;;8428301;28;19916;-56
2023/06/15 04:45:48;;;;;;;1.75;1.65;;;22.80;55.50;;;;;;8427574;28;20031;-60
2023/06/15 04:49:48;;;;;;;1.80;1.50;;;22.80;55.20;;;;;;8410003;28;20032;-56
2023/06/15 04:53:49;;;;;;;2.28;1.80;;;22.80;55.60;;;;;;8426553;28;20024;-59
2023/06/15 04:57:50;;;;;;;2.97;1.38;;;22.80;55.30;;;;;;8408848;28;20039;-54
2023/06/15 05:01:51;;;;;;;3.22;1.73;;;22.80;54.90;;;;;;8428438;28;20035;-54
2023/06/15 05:05:51;;;;;;;3.17;1.50;;;22.80;55.20;;;;;;8425320;28;20080;-56
2023/06/15 05:09:53;;;;;;;3.45;1.70;;;22.80;55.30;;;;;;8427247;28;20093;-56
2023/06/15 05:13:54;;;;;;;1.88;1.63;;;22.80;55.60;;;;;;8427036;28;20378;-57
2023/06/15 05:17:55;;;;;;;2.05;1.45;;;22.80;55.30;;;;;;8425650;28;20054;-56
2023/06/15 05:22:00;;;;;;;1.90;1.30;;;22.90;55.30;;;;;;8426931;28;20051;-53
2023/06/15 05:26:00;;;;;;;1.42;1.23;;;22.90;55.30;;;;;;8425678;28;20047;-56
2023/06/15 05:30:02;;;;;;;3.17;1.40;;;22.90;55.10;;;;;;8425917;28;20027;-52
2023/06/15 05:34:03;;;;;;;2.17;1.20;;;22.90;55.30;;;;;;8425694;28;20032;-54
2023/06/15 05:38:04;;;;;;;1.52;1.40;;;23.00;55.10;;;;;;8426066;28;20081;-54
2023/06/15 05:42:05;;;;;;;1.67;1.55;;;22.90;55.20;;;;;;8425508;28;20567;-55
2023/06/15 05:46:05;;;;;;;;;;;22.90;55.30;;;;;;8426144;28;20071;-57
2023/06/15 05:50:06;;;;;;;1.67;1.40;;;22.90;55.10;;;;;;8424293;28;19961;-55
2023/06/15 05:54:07;;;;;;;1.80;1.52;;;22.90;55.00;;;;;;8426744;28;20027;-55
2023/06/15 05:58:07;;;;;;;2.45;1.50;;;22.90;55.20;;;;;;8428426;28;20043;-54
2023/06/15 06:02:08;;;;;;;2.97;1.67;;;22.90;55.10;;;;;;8431478;28;20040;-56
2023/06/15 06:06:09;;;;;;;1.85;1.70;;;22.90;55.00;;;;;;8433158;28;20148;-57
2023/06/15 06:10:09;;;;;;;1.83;1.30;;;22.90;55.00;;;;;;8431039;28;20036;-55
2023/06/15 06:14:10;;;;;;;1.52;1.40;;;22.90;55.20;;;;;;8432062;28;20028;-55
2023/06/15 06:18:11;;;;;;;5.82;1.30;;;22.90;55.10;;;;;;8432383;28;20102;-56
2023/06/15 06:22:11;;;;;;;5.07;1.60;;;22.90;54.90;;;;;;8432589;28;20056;-56
2023/06/15 06:26:12;;;;;;;6.85;1.48;;;22.80;54.90;;;;;;8412278;28;20036;-55
2023/06/15 06:30:12;;;;;;;6.93;1.50;;;22.80;55.20;;;;;;8431838;28;20028;-55
2023/06/15 06:34:13;;;;;;;4.15;1.20;;;22.80;55.00;;;;;;8415218;28;20105;-55
2023/06/15 06:38:14;;;;;;;1.17;1.05;;;22.80;54.90;;;;;;8432988;28;20032;-55
2023/06/15 06:42:15;;;;;;;5.05;1.60;;;22.80;54.90;;;;;;8429911;28;20032;-53
2023/06/15 06:46:16;;;;;;;3.28;1.40;;;22.80;54.80;;;;;;8430963;28;20075;-54
2023/06/15 06:50:16;;;;;;;2.30;1.20;;;22.80;54.80;;;;;;8430632;28;20020;-54
2023/06/15 06:54:17;;;;;;;1.73;1.48;;;22.80;54.90;;;;;;8431027;28;20031;-54
2023/06/15 06:58:18;;;;;;;2.97;1.50;;;22.70;54.80;;;;;;8430838;28;20496;-55
2023/06/15 07:02:18;;;;;;;4.15;1.50;;;22.80;54.90;;;;;;8431397;28;20035;-55
2023/06/15 07:06:19;;;;;;;3.70;1.65;;;22.80;55.00;;;;;;8429895;28;20055;-54
2023/06/15 07:10:20;;;;;;;2.58;1.48;;;22.80;55.20;;;;;;8429730;28;20035;-55
2023/06/15 07:29:49;;;;;;;1.63;0.95;;;22.80;55.00;;;;;;8428058;28;20077;-53
2023/06/15 07:33:53;;;;;;;1.90;1.50;;;22.70;55.00;;;;;;8430295;28;20020;-55
2023/06/15 07:37:54;;;;;;;2.38;1.10;;;22.70;55.50;;;;;;8428444;28;20044;-54
2023/06/15 07:41:55;;;;;;;2.47;1.55;;;22.70;55.30;;;;;;8428035;28;20036;-56
2023/06/15 07:45:56;;;;;;;1.80;1.30;;;22.80;55.30;;;;;;8427868;28;20043;-56
2023/06/15 07:49:57;;;;;;;2.95;1.42;;;22.80;55.30;;;;;;8428166;28;20035;-56
2023/06/15 07:53:57;;;;;;;1.30;1.20;;;22.80;55.30;;;;;;8428057;28;20058;-55
2023/06/15 07:57:59;;;;;;;1.52;1.17;;;22.80;55.10;;;;;;8428391;28;20023;-54
2023/06/15 08:02:02;;;;;;;;;;;22.90;55.10;;;;;;8429092;28;20155;-54
2023/06/15 08:06:03;;;;;;;1.48;1.38;;;22.90;54.90;;;;;;8429563;28;19998;-54
2023/06/15 08:10:04;;;;;;;1.58;1.30;;;22.90;54.60;;;;;;8428294;28;20040;-54
2023/06/15 08:14:05;;;;;;;;;;;22.90;55.00;;;;;;8427415;28;20028;-54
2023/06/15 08:18:05;;;;;;;2.55;1.40;;;22.90;54.90;;;;;;8427804;28;20061;-54
2023/06/15 08:22:06;;;;;;;2.50;1.35;;;22.90;54.90;;;;;;8427521;28;20038;-55
2023/06/15 08:26:07;;;;;;;3.25;1.20;;;22.90;54.80;;;;;;8427370;28;20107;-55
2023/06/15 08:30:08;;;;;;;1.77;1.25;;;23.00;54.80;;;;;;8429453;28;20028;-54
2023/06/15 08:34:09;;;;;;;1.30;1.00;;;23.00;54.80;;;;;;8427800;28;20035;-52
2023/06/15 08:38:10;;;;;;;2.25;1.15;;;23.00;54.80;;;;;;8426669;28;20155;-53
2023/06/15 08:42:10;;;;;;;1.48;1.35;;;23.00;54.60;;;;;;8426615;28;20043;-54
2023/06/15 08:46:12;;;;;;;1.50;1.40;;;23.00;54.60;;;;;;8427002;28;20116;-54
2023/06/15 08:50:13;;;;;;;1.98;1.52;;;23.00;54.70;;;;;;8425395;28;20393;-54
2023/06/15 08:54:13;;;;;;;1.25;1.15;;;23.00;54.70;;;;;;8426757;28;20115;-55
2023/06/15 08:58:15;;;;;;;1.52;1.30;;;23.00;54.80;;;;;;8427364;28;20043;-56
2023/06/15 09:02:23;;;;;;;1.95;1.67;;;22.90;54.80;;;;;;8438468;28;20081;-55
2023/06/15 09:06:24;;;;;;;2.67;1.27;;;23.00;55.00;;;;;;8458188;28;20044;-55
2023/06/15 09:10:26;;;;;;;3.30;1.48;;;22.90;55.30;;;;;;8447942;28;20028;-54
2023/06/15 09:14:26;;;;;;;1.73;1.40;;;22.90;55.00;;;;;;8424353;28;20032;-55
2023/06/15 09:18:27;;;;;;;1.70;1.40;;;22.90;55.00;;;;;;8425526;28;20024;-55
2023/06/15 09:22:29;;;;;;;2.08;1.25;;;22.90;55.10;;;;;;8426352;28;20020;-55
2023/06/15 09:26:30;;;;;;;1.40;1.30;;;22.80;55.00;;;;;;8425994;28;20714;-54
2023/06/15 09:30:38;;;;;;;2.10;1.02;;;22.80;55.10;;;;;;8426339;28;20584;-55
2023/06/15 09:34:39;;;;;;;1.38;1.15;;;22.80;55.20;;;;;;8432883;28;20427;-55
2023/06/15 09:38:41;;;;;;;1.60;1.38;;;22.80;55.00;;;;;;8432743;28;20489;-55
2023/06/15 09:42:42;;;;;;;1.85;1.20;;;22.80;55.00;;;;;;8433041;28;20423;-55
2023/06/15 09:46:43;;;;;;;1.85;1.30;;;22.80;55.30;;;;;;8432226;28;20028;-55
2023/06/15 09:50:51;;;;;;;1.65;1.20;;;22.80;55.10;;;;;;8432532;28;20023;-56
2023/06/15 09:54:53;;;;;;;1.63;1.40;;;22.80;55.30;;;;;;8432284;28;20081;-52
2023/06/15 09:58:54;;;;;;;1.25;1.15;;;22.80;55.00;;;;;;8431882;28;20028;-56
2023/06/15 10:02:58;;;;;;;1.30;1.20;;;22.90;55.50;;;;;;8432057;28;20035;-55
2023/06/15 10:07:03;;;;;;;1.25;1.10;;;22.80;55.50;;;;;;8431560;28;20052;-56
2023/06/15 10:11:04;;;;;;;1.20;1.10;;;22.80;55.60;;;;;;8431728;28;20042;-54
2023/06/15 10:15:10;;;;;;;;;;;22.80;55.40;;;;;;8432043;28;20363;-54
2023/06/15 10:19:15;;;;;;;1.20;1.10;;;22.80;55.50;;;;;;8431238;28;19911;-54
2023/06/15 10:23:19;;;;;;;1.20;1.10;;;22.80;55.50;;;;;;8431296;28;20107;-54
2023/06/15 10:27:20;;;;;;;1.65;1.30;;;22.80;55.60;;;;;;8431763;28;20040;-53
2023/06/15 10:31:38;;;;;;;1.25;1.10;;;22.80;55.60;;;;;;8430754;28;20086;-54
2023/06/15 10:35:46;;;;;;;1.75;1.30;;;22.70;55.50;;;;;;8431017;28;20024;-54
2023/06/15 10:39:49;;;;;;;1.20;1.10;;;22.70;55.40;;;;;;8412810;28;20380;-54
2023/06/15 10:43:58;;;;;;;1.75;1.38;;;22.70;55.60;;;;;;8430035;28;20110;-54
2023/06/15 10:48:00;;;;;;;1.48;1.38;;;22.80;55.60;;;;;;8412481;28;20111;-55
2023/06/15 10:52:04;;;;;;;1.15;1.05;;;22.80;55.70;;;;;;8430266;28;20058;-57
2023/06/15 10:56:16;;;;;;;5.47;1.27;;;22.80;55.70;;;;;;8430132;28;20028;-56
2023/06/15 11:00:26;;;;;;;1.35;1.25;;;22.80;55.50;;;;;;8430010;28;20031;-56
2023/06/15 11:04:31;;;;;;;1.45;1.23;;;22.80;55.50;;;;;;8429712;28;20106;-56
2023/06/15 11:08:52;;;;;;;1.52;1.30;;;22.70;55.30;;;;;;8429766;28;20055;-55
2023/06/15 11:13:03;;;;;;;1.60;1.10;;;22.70;55.40;;;;;;8430186;28;20029;-55
2023/06/15 11:17:05;;;;;;;2.30;1.30;;;22.70;55.30;;;;;;8429454;28;20028;-55
2023/06/15 11:21:06;;;;;;;2.72;1.30;;;22.80;55.30;;;;;;8429595;28;20102;-55
2023/06/15 11:25:10;;;;;;;1.63;1.20;;;22.70;55.40;;;;;;8429075;28;20024;-55
2023/06/15 11:29:13;;;;;;;1.52;1.23;;;22.70;55.50;;;;;;8429070;28;20484;-55
2023/06/15 11:33:14;;;;;;;1.60;1.50;;;22.60;55.40;;;;;;8429036;28;20020;-55
2023/06/15 11:37:14;;;;;;;;;;;22.60;55.40;;;;;;8429428;28;20027;-55
2023/06/15 11:41:15;;;;;;;1.10;1.00;;;22.60;55.40;;;;;;8428954;28;19904;-54
2023/06/15 11:45:20;;;;;;;2.75;1.23;;;22.60;55.40;;;;;;8428520;28;20081;-55
2023/06/15 11:49:21;;;;;;;0.82;0.75;;;22.60;55.40;;;;;;8428481;28;20024;-55
2023/06/15 11:53:22;;;;;;;0.90;0.90;;;22.60;55.40;;;;;;8428488;28;20385;-55
2023/06/15 11:57:23;;;;;;;1.48;1.27;;;22.60;55.40;;;;;;8427495;28;20107;-55
2023/06/15 12:01:26;;;;;;;1.10;1.00;;;22.60;55.40;;;;;;8428001;28;20474;-55
2023/06/15 12:05:27;;;;;;;1.13;1.02;;;22.50;55.30;;;;;;8428223;28;20111;-56
2023/06/15 12:09:28;;;;;;;1.42;1.33;;;22.50;55.40;;;;;;8427827;28;20559;-55
2023/06/15 12:13:28;;;;;;;1.42;1.20;;;22.50;55.40;;;;;;8427904;28;20028;-55
2023/06/15 12:17:34;;;;;;;1.15;1.05;;;22.50;55.40;;;;;;8427998;28;20036;-55
2023/06/15 12:21:38;;;;;;;1.02;1.00;;;22.50;55.40;;;;;;8427444;28;20080;-55
2023/06/15 12:25:47;;;;;;;1.30;1.20;;;22.50;55.40;;;;;;8427645;28;20051;-55
2023/06/15 12:29:47;;;;;;;1.33;1.13;;;22.50;55.40;;;;;;8427474;28;20052;-55
2023/06/15 12:33:51;;;;;;;1.25;1.08;;;22.50;55.40;;;;;;8427613;28;20035;-55
2023/06/15 12:37:51;;;;;;;1.42;1.15;;;22.50;55.40;;;;;;8427112;28;20111;-55
2023/06/15 12:42:01;;;;;;;1.50;1.30;;;22.50;55.30;;;;;;8427338;28;20028;-55
2023/06/15 12:46:01;;;;;;;1.20;1.10;;;22.50;55.40;;;;;;8426626;28;20040;-55
2023/06/15 12:50:02;;;;;;;1.73;1.20;;;22.50;55.40;;;;;;8426921;28;20082;-55
2023/06/15 12:54:03;;;;;;;1.65;0.98;;;22.50;55.40;;;;;;8426663;28;20031;-55
2023/06/15 12:58:04;;;;;;;1.17;1.08;;;22.50;55.40;;;;;;8427127;28;20028;-55
2023/06/15 13:02:05;;;;;;;2.05;1.02;;;22.40;55.40;;;;;;8426734;28;20034;-54
2023/06/15 13:06:06;;;;;;;2.35;1.15;;;22.50;55.40;;;;;;8425989;28;20052;-55
2023/06/15 13:10:08;;;;;;;1.35;1.20;;;22.50;55.90;;;;;;8427013;28;20103;-55
2023/06/15 13:14:09;;;;;;;1.30;1.20;;;22.50;55.40;;;;;;8426350;28;20031;-55
2023/06/15 13:18:13;;;;;;;1.20;1.10;;;22.50;55.40;;;;;;8426532;28;20663;-55
2023/06/15 13:22:14;;;;;;;1.33;1.20;;;22.50;55.40;;;;;;8426464;28;20028;-55
2023/06/15 13:26:15;;;;;;;1.20;1.10;;;22.50;55.40;;;;;;8426109;28;20103;-56
2023/06/15 13:30:16;;;;;;;1.38;1.23;;;22.40;55.40;;;;;;8426367;28;20386;-55
2023/06/15 13:34:17;;;;;;;1.30;1.10;;;22.50;55.40;;;;;;8426062;28;20085;-55
2023/06/15 13:38:17;;;;;;;0.93;0.88;;;22.50;55.40;;;;;;8426088;28;20028;-55
2023/06/15 13:42:18;;;;;;;1.35;1.25;;;22.50;55.30;;;;;;8426173;28;20054;-55
2023/06/15 13:46:18;;;;;;;1.67;1.00;;;22.50;55.30;;;;;;8425737;28;20028;-55
2023/06/15 13:50:19;;;;;;;1.38;1.20;;;22.50;55.30;;;;;;8425934;28;20020;-55
2023/06/15 13:54:20;;;;;;;1.85;1.10;;;22.50;55.30;;;;;;8426058;28;20059;-55
2023/06/15 13:58:21;;;;;;;0.82;0.82;;;22.50;55.30;;;;;;8425832;28;20028;-55
2023/06/15 14:02:22;;;;;;;1.00;0.90;;;22.50;55.30;;;;;;8425632;28;20035;-55
2023/06/15 14:06:23;;;;;;;1.20;1.10;;;22.50;55.30;;;;;;8425584;28;20115;-55
2023/06/15 14:10:24;;;;;;;1.23;1.00;;;22.50;55.30;;;;;;8425619;28;20028;-55
2023/06/15 14:14:27;;;;;;;1.25;1.10;;;22.50;55.30;;;;;;8425522;28;20028;-55
2023/06/15 14:18:27;;;;;;;1.23;1.13;;;22.50;55.30;;;;;;8427766;28;20047;-55
2023/06/15 14:22:29;;;;;;;1.40;1.17;;;22.50;55.30;;;;;;8431188;28;20035;-55
2023/06/15 14:26:30;;;;;;;1.20;1.10;;;22.50;55.30;;;;;;8431235;28;20032;-55
2023/06/15 14:30:30;;;;;;;0.90;0.90;;;22.50;55.20;;;;;;8430990;28;20081;-55
2023/06/15 14:34:31;;;;;;;1.30;0.98;;;22.50;55.20;;;;;;8430950;28;20060;-55
2023/06/15 14:38:32;;;;;;;1.30;1.20;;;22.50;55.30;;;;;;8430957;28;20055;-55
2023/06/15 14:42:33;;;;;;;1.20;1.10;;;22.50;55.20;;;;;;8413266;28;20154;-54
2023/06/15 14:46:35;;;;;;;1.30;1.20;;;22.50;55.20;;;;;;8430215;28;20478;-55
2023/06/15 14:50:35;;;;;;;1.10;1.00;;;22.50;55.20;;;;;;8430528;28;20031;-55
2023/06/15 14:54:40;;;;;;;1.30;1.20;;;22.50;55.20;;;;;;8430301;28;20035;-55
2023/06/15 14:58:41;;;;;;;1.00;1.00;;;22.50;55.20;;;;;;8430316;28;20032;-55
2023/06/15 15:02:42;;;;;;;1.33;1.23;;;22.50;55.20;;;;;;8429733;28;20023;-55
2023/06/15 15:06:43;;;;;;;1.15;1.00;;;22.50;55.20;;;;;;8420463;28;20441;-55
2023/06/15 15:10:43;;;;;;;1.33;1.23;;;22.50;55.20;;;;;;8396919;28;20024;-55
2023/06/15 15:14:44;;;;;;;1.55;1.10;;;22.50;55.20;;;;;;8396045;28;20020;-55
2023/06/15 15:18:45;;;;;;;1.13;1.02;;;22.50;55.30;;;;;;8396155;28;20027;-55
2023/06/15 15:22:45;;;;;;;1.20;1.10;;;22.50;55.30;;;;;;8396126;28;20020;-55
2023/06/15 15:26:46;;;;;;;0.98;0.98;;;22.50;55.30;;;;;;8395644;28;20028;-55
2023/06/15 15:30:47;;;;;;;1.20;1.10;;;22.50;55.30;;;;;;8395608;28;20386;-55
2023/06/15 15:34:47;;;;;;;1.27;1.17;;;22.50;55.20;;;;;;8395554;28;20064;-55
2023/06/15 15:38:48;;;;;;;0.77;0.77;;;22.50;55.20;;;;;;8395522;28;20039;-55
2023/06/15 15:42:49;;;;;;;1.48;0.93;;;22.50;55.20;;;;;;8395450;28;20032;-55
2023/06/15 15:46:50;;;;;;;1.08;0.90;;;22.50;55.20;;;;;;8395138;28;20433;-54
2023/06/15 15:50:50;;;;;;;1.33;1.23;;;22.50;55.20;;;;;;8394935;28;20043;-55
2023/06/15 15:54:51;;;;;;;1.02;0.93;;;22.50;55.20;;;;;;8394976;28;20024;-55
2023/06/15 15:58:52;;;;;;;1.27;1.10;;;22.50;55.20;;;;;;8394696;28;20040;-55
2023/06/15 16:02:52;;;;;;;1.35;1.15;;;22.50;55.20;;;;;;8394701;28;20028;-55
2023/06/15 16:06:53;;;;;;;1.20;1.10;;;22.50;55.20;;;;;;8405758;28;20040;-55
2023/06/15 16:10:54;;;;;;;1.25;0.95;;;22.50;55.20;;;;;;8427969;28;20059;-55
2023/06/15 16:14:54;;;;;;;1.10;1.00;;;22.50;55.20;;;;;;8428075;28;20020;-55
2023/06/15 16:18:55;;;;;;;1.08;1.00;;;22.50;55.20;;;;;;8427827;28;20547;-55
2023/06/15 16:22:56;;;;;;;1.23;1.13;;;22.50;55.20;;;;;;8427381;28;20032;-54
2023/06/15 16:26:57;;;;;;;1.13;1.02;;;22.50;55.20;;;;;;8427606;28;20067;-55
2023/06/15 16:30:59;;;;;;;1.20;1.10;;;22.50;55.20;;;;;;8427414;28;20077;-55
2023/06/15 16:34:59;;;;;;;0.90;0.90;;;22.50;55.20;;;;;;8427091;28;20114;-55
2023/06/15 16:39:00;;;;;;;1.40;1.10;;;22.50;55.20;;;;;;8409312;28;20028;-55
2023/06/15 16:43:01;;;;;;;1.42;1.33;;;22.50;55.20;;;;;;8426648;28;20488;-55
2023/06/15 16:47:02;;;;;;;1.30;1.10;;;22.50;55.20;;;;;;8427193;28;20473;-55
2023/06/15 16:51:03;;;;;;;1.30;1.02;;;22.50;55.20;;;;;;8427082;28;20086;-55
2023/06/15 16:55:04;;;;;;;0.90;0.90;;;22.50;55.20;;;;;;8426728;28;20778;-55
2023/06/15 16:59:04;;;;;;;1.52;1.42;;;22.50;55.30;;;;;;8426786;28;20024;-55
2023/06/15 17:03:05;;;;;;;1.48;1.25;;;22.50;55.30;;;;;;8426648;28;20477;-55
2023/06/15 17:07:07;;;;;;;1.10;1.00;;;22.40;55.20;;;;;;8413629;28;20048;-55
2023/06/15 17:11:07;;;;;;;1.08;0.98;;;22.40;55.20;;;;;;8393415;28;20029;-55
2023/06/15 17:15:08;;;;;;;1.05;0.90;;;22.50;55.20;;;;;;8392896;28;20028;-55
2023/06/15 17:19:10;;;;;;;1.00;0.90;;;22.50;55.20;;;;;;8392822;28;20031;-55
2023/06/15 17:23:10;;;;;;;0.82;0.82;;;22.50;55.70;;;;;;8393032;28;20516;-54
2023/06/15 17:27:11;;;;;;;1.20;1.10;;;22.50;55.20;;;;;;8392778;28;20123;-55
2023/06/15 17:31:12;;;;;;;1.15;1.05;;;22.50;55.20;;;;;;8392944;28;20094;-55
2023/06/15 17:35:13;;;;;;;;;;;22.50;55.20;;;;;;8393080;28;20044;-54
2023/06/15 17:39:13;;;;;;;1.13;1.03;;;22.40;55.10;;;;;;8392933;28;20421;-55
2023/06/15 17:43:14;;;;;;;1.10;0.90;;;22.50;55.20;;;;;;8392517;28;20371;-55
2023/06/15 17:47:14;;;;;;;1.02;0.93;;;22.50;55.20;;;;;;8392571;28;20082;-55
2023/06/15 17:51:15;;;;;;;1.20;1.10;;;22.50;55.20;;;;;;8392288;28;20120;-55
2023/06/15 17:55:16;;;;;;;1.08;0.98;;;22.50;55.20;;;;;;8397480;28;20029;-55
2023/06/15 17:59:17;;;;;;;1.13;0.90;;;22.50;55.20;;;;;;8398523;28;20033;-55
2023/06/15 18:03:17;;;;;;;1.13;0.90;;;22.50;55.20;;;;;;8398510;28;20044;-55
2023/06/15 18:07:18;;;;;;;1.10;1.00;;;22.40;55.10;;;;;;8412877;28;20048;-54
2023/06/15 18:11:19;;;;;;;0.98;0.98;;;22.50;55.20;;;;;;8432078;28;20043;-55
2023/06/15 18:15:19;;;;;;;0.90;0.90;;;22.50;55.20;;;;;;8431623;28;20085;-55
2023/06/15 18:19:20;;;;;;;0.88;0.70;;;22.50;55.20;;;;;;8431527;28;20043;-55
2023/06/15 18:23:20;;;;;;;1.00;0.90;;;22.40;55.20;;;;;;8432077;28;20109;-55
2023/06/15 18:27:21;;;;;;;0.98;0.90;;;22.50;55.30;;;;;;8431173;28;20536;-55
2023/06/15 18:31:22;;;;;;;0.75;0.75;;;22.40;55.20;;;;;;8431097;28;20029;-55
2023/06/15 18:35:23;;;;;;;0.82;0.82;;;22.40;55.20;;;;;;8431069;28;20071;-55
2023/06/15 18:39:23;;;;;;;1.00;1.00;;;22.40;55.20;;;;;;8431184;28;20480;-55
2023/06/15 18:43:24;;;;;;;1.10;1.00;;;22.40;55.30;;;;;;8430857;28;20043;-54
2023/06/15 18:47:25;;;;;;;0.88;0.88;;;22.40;55.30;;;;;;8412586;28;20055;-55
2023/06/15 18:51:25;;;;;;;0.98;0.90;;;22.40;55.20;;;;;;8430784;28;20024;-55
2023/06/15 18:55:26;;;;;;;1.15;1.05;;;22.40;55.20;;;;;;8430235;28;20132;-55
2023/06/15 18:59:27;;;;;;;0.90;0.90;;;22.50;55.20;;;;;;8430447;28;20443;-55
2023/06/15 19:03:27;;;;;;;1.00;0.95;;;22.50;55.20;;;;;;8429945;28;20035;-55
2023/06/15 19:07:28;;;;;;;1.30;1.13;;;22.50;55.20;;;;;;8429709;28;20082;-55
2023/06/15 19:11:28;;;;;;;2.03;1.38;;;22.50;55.20;;;;;;8430380;28;20024;-55
2023/06/15 19:15:29;;;;;;;0.88;0.82;;;22.50;55.20;;;;;;8429768;28;20028;-54
2023/06/15 19:19:30;;;;;;;1.00;0.90;;;22.50;55.20;;;;;;8429532;28;20067;-55
2023/06/15 19:23:31;;;;;;;0.90;0.90;;;22.50;55.20;;;;;;8429583;28;20512;-55
2023/06/15 19:27:31;;;;;;;0.70;0.70;;;22.50;55.20;;;;;;8429363;28;20485;-55
2023/06/15 19:31:33;;;;;;;1.00;0.90;;;22.40;55.10;;;;;;8429096;28;20394;-55
2023/06/15 19:35:35;;;;;;;0.98;0.90;;;22.50;55.20;;;;;;8429074;28;20036;-55
2023/06/15 19:39:35;;;;;;;1.10;1.00;;;22.50;55.20;;;;;;8429189;28;20039;-55
2023/06/15 19:43:38;;;;;;;0.80;0.80;;;22.50;55.20;;;;;;8428880;28;20032;-55
2023/06/15 19:47:39;;;;;;;0.88;0.88;;;22.50;55.20;;;;;;8428728;28;20035;-54
2023/06/15 19:51:40;;;;;;;0.80;0.80;;;22.50;55.20;;;;;;8428732;28;20082;-54
2023/06/15 19:55:41;;;;;;;0.68;0.68;;;22.40;55.20;;;;;;8428622;28;20067;-55
2023/06/15 19:59:43;;;;;;;0.88;0.88;;;22.50;55.20;;;;;;8428366;28;20525;-55
2023/06/15 20:03:45;;;;;;;0.80;0.80;;;22.40;55.20;;;;;;8410611;28;20060;-54
2023/06/15 20:07:46;;;;;;;0.95;0.93;;;22.40;55.20;;;;;;8428617;28;20076;-55
2023/06/15 20:11:46;;;;;;;0.70;0.70;;;22.40;55.20;;;;;;8428342;28;20033;-55
2023/06/15 20:15:47;;;;;;;1.05;0.93;;;22.40;55.30;;;;;;8427288;28;20036;-55
2023/06/15 20:19:47;;;;;;;1.20;1.00;;;22.40;55.30;;;;;;8428053;28;20036;-55
2023/06/15 20:23:48;;;;;;;0.85;0.85;;;22.40;55.30;;;;;;8427495;28;20039;-55
2023/06/15 20:27:49;;;;;;;0.68;0.68;;;22.40;55.30;;;;;;8427686;28;20040;-55
2023/06/15 20:31:49;;;;;;;0.98;0.90;;;22.40;55.20;;;;;;8427388;28;20120;-55
2023/06/15 20:35:50;;;;;;;0.80;0.80;;;22.40;55.20;;;;;;8427545;28;20040;-55
2023/06/15 20:39:51;;;;;;;0.98;0.90;;;22.40;55.30;;;;;;8427647;28;20047;-55
2023/06/15 20:43:51;;;;;;;0.80;0.80;;;22.40;55.30;;;;;;8427090;28;20036;-55
2023/06/15 20:47:52;;;;;;;0.75;0.75;;;22.40;55.20;;;;;;8426931;28;20439;-55
2023/06/15 20:51:52;;;;;;;0.70;0.70;;;22.40;55.20;;;;;;8426601;28;20478;-55
2023/06/15 20:55:53;;;;;;;0.88;0.88;;;22.40;55.20;;;;;;8426686;28;20063;-55
2023/06/15 20:59:54;;;;;;;1.00;0.90;;;22.40;55.20;;;;;;8426800;28;20043;-55
2023/06/15 21:03:54;;;;;;;1.00;0.90;;;22.40;55.20;;;;;;8425192;28;20032;-55
2023/06/15 21:07:55;;;;;;;1.10;1.00;;;22.40;55.20;;;;;;8408573;28;20402;-55
2023/06/15 21:11:56;;;;;;;1.05;0.95;;;22.40;55.20;;;;;;8426841;28;20039;-55
2023/06/15 21:15:56;;;;;;;0.60;0.60;;;22.40;55.20;;;;;;8426514;28;20092;-55